sensor_id;sensor_type;location;lat;lon;timestamp;P1;durP1;ratioP1;P2;durP2;ratioP2
20657;SDS011;10488;50.846;4.078;2022-11-24T00:00:33;14.13;;;2.95;;
20657;SDS011;10488;50.846;4.078;2022-11-24T00:02:59;15.45;;;3.65;;
20657;SDS011;10488;50.846;4.078;2022-11-24T00:05:25;17.27;;;3.10;;
20657;SDS011;10488;50.846;4.078;2022-11-24T00:07:51;21.50;;;3.25;;
20657;SDS011;10488;50.846;4.078;2022-11-24T00:10:16;21.08;;;3.08;;
20657;SDS011;10488;50.846;4.078;2022-11-24T00:12:42;21.95;;;4.30;;
20657;SDS011;10488;50.846;4.078;2022-11-24T00:15:08;18.48;;;3.42;;
20657;SDS011;10488;50.846;4.078;2022-11-24T00:17:33;24.98;;;3.53;;
20657;SDS011;10488;50.846;4.078;2022-11-24T00:19:59;25.95;;;4.95;;
20657;SDS011;10488;50.846;4.078;2022-11-24T00:22:25;24.20;;;4.03;;
20657;SDS011;10488;50.846;4.078;2022-11-24T00:24:50;24.85;;;3.15;;
20657;SDS011;10488;50.846;4.078;2022-11-24T00:27:16;17.60;;;3.55;;
20657;SDS011;10488;50.846;4.078;2022-11-24T00:29:42;17.83;;;3.50;;
20657;SDS011;10488;50.846;4.078;2022-11-24T00:32:07;19.42;;;3.45;;
20657;SDS011;10488;50.846;4.078;2022-11-24T00:34:33;23.85;;;3.72;;
20657;SDS011;10488;50.846;4.078;2022-11-24T00:36:59;23.60;;;4.43;;
20657;SDS011;10488;50.846;4.078;2022-11-24T00:39:24;17.40;;;3.83;;
20657;SDS011;10488;50.846;4.078;2022-11-24T00:41:50;19.95;;;3.97;;
20657;SDS011;10488;50.846;4.078;2022-11-24T00:44:15;22.80;;;3.45;;
20657;SDS011;10488;50.846;4.078;2022-11-24T00:46:41;18.70;;;4.00;;
20657;SDS011;10488;50.846;4.078;2022-11-24T00:49:07;25.90;;;4.03;;
20657;SDS011;10488;50.846;4.078;2022-11-24T00:51:32;25.60;;;4.40;;
20657;SDS011;10488;50.846;4.078;2022-11-24T00:53:59;23.52;;;3.92;;
20657;SDS011;10488;50.846;4.078;2022-11-24T00:56:25;24.05;;;3.92;;
20657;SDS011;10488;50.846;4.078;2022-11-24T00:58:53;23.63;;;4.03;;
20657;SDS011;10488;50.846;4.078;2022-11-24T01:01:23;19.73;;;4.80;;
20657;SDS011;10488;50.846;4.078;2022-11-24T01:03:50;24.70;;;4.45;;
20657;SDS011;10488;50.846;4.078;2022-11-24T01:06:17;16.65;;;3.85;;
20657;SDS011;10488;50.846;4.078;2022-11-24T01:08:45;23.48;;;4.18;;
20657;SDS011;10488;50.846;4.078;2022-11-24T01:11:16;17.95;;;3.25;;
20657;SDS011;10488;50.846;4.078;2022-11-24T01:13:45;24.42;;;5.22;;
20657;SDS011;10488;50.846;4.078;2022-11-24T01:16:13;22.92;;;4.25;;
20657;SDS011;10488;50.846;4.078;2022-11-24T01:18:48;20.33;;;3.97;;
20657;SDS011;10488;50.846;4.078;2022-11-24T01:21:14;23.63;;;3.53;;
20657;SDS011;10488;50.846;4.078;2022-11-24T01:23:41;23.40;;;4.47;;
20657;SDS011;10488;50.846;4.078;2022-11-24T01:26:09;20.63;;;4.05;;
20657;SDS011;10488;50.846;4.078;2022-11-24T01:28:36;19.58;;;3.53;;
20657;SDS011;10488;50.846;4.078;2022-11-24T01:31:04;34.90;;;4.57;;
20657;SDS011;10488;50.846;4.078;2022-11-24T01:33:31;22.40;;;3.83;;
20657;SDS011;10488;50.846;4.078;2022-11-24T01:35:58;26.73;;;5.05;;
20657;SDS011;10488;50.846;4.078;2022-11-24T01:38:24;30.20;;;4.00;;
20657;SDS011;10488;50.846;4.078;2022-11-24T01:43:27;20.58;;;4.18;;
20657;SDS011;10488;50.846;4.078;2022-11-24T01:45:53;26.65;;;4.68;;
20657;SDS011;10488;50.846;4.078;2022-11-24T01:51:15;35.08;;;4.45;;
20657;SDS011;10488;50.846;4.078;2022-11-24T01:53:41;25.52;;;4.53;;
20657;SDS011;10488;50.846;4.078;2022-11-24T01:56:12;24.42;;;4.45;;
20657;SDS011;10488;50.846;4.078;2022-11-24T01:58:40;21.67;;;4.15;;
20657;SDS011;10488;50.846;4.078;2022-11-24T02:01:07;25.73;;;4.50;;
20657;SDS011;10488;50.846;4.078;2022-11-24T02:03:35;20.75;;;4.20;;
20657;SDS011;10488;50.846;4.078;2022-11-24T02:06:06;26.58;;;3.88;;
20657;SDS011;10488;50.846;4.078;2022-11-24T02:08:39;23.35;;;4.07;;
20657;SDS011;10488;50.846;4.078;2022-11-24T02:11:24;25.58;;;4.22;;
20657;SDS011;10488;50.846;4.078;2022-11-24T02:13:52;24.27;;;4.70;;
20657;SDS011;10488;50.846;4.078;2022-11-24T02:16:19;21.75;;;4.88;;
20657;SDS011;10488;50.846;4.078;2022-11-24T02:18:44;20.60;;;4.03;;
20657;SDS011;10488;50.846;4.078;2022-11-24T02:21:10;24.90;;;4.60;;
20657;SDS011;10488;50.846;4.078;2022-11-24T02:29:09;15.02;;;2.40;;
20657;SDS011;10488;50.846;4.078;2022-11-24T02:31:37;10.25;;;2.00;;
20657;SDS011;10488;50.846;4.078;2022-11-24T02:34:05;7.05;;;1.48;;
20657;SDS011;10488;50.846;4.078;2022-11-24T02:36:31;6.20;;;1.50;;
20657;SDS011;10488;50.846;4.078;2022-11-24T02:38:56;11.70;;;1.65;;
20657;SDS011;10488;50.846;4.078;2022-11-24T02:41:22;12.32;;;1.90;;
20657;SDS011;10488;50.846;4.078;2022-11-24T02:43:52;10.85;;;1.70;;
20657;SDS011;10488;50.846;4.078;2022-11-24T02:46:20;8.98;;;1.85;;
20657;SDS011;10488;50.846;4.078;2022-11-24T02:48:46;11.18;;;2.22;;
20657;SDS011;10488;50.846;4.078;2022-11-24T02:51:12;9.60;;;1.85;;
20657;SDS011;10488;50.846;4.078;2022-11-24T02:53:37;11.25;;;2.33;;
20657;SDS011;10488;50.846;4.078;2022-11-24T02:56:03;10.88;;;2.35;;
20657;SDS011;10488;50.846;4.078;2022-11-24T02:58:29;14.82;;;2.33;;
20657;SDS011;10488;50.846;4.078;2022-11-24T03:00:55;12.52;;;2.67;;
20657;SDS011;10488;50.846;4.078;2022-11-24T03:03:22;10.23;;;2.25;;
20657;SDS011;10488;50.846;4.078;2022-11-24T03:05:48;8.88;;;2.03;;
20657;SDS011;10488;50.846;4.078;2022-11-24T03:08:14;12.80;;;2.38;;
20657;SDS011;10488;50.846;4.078;2022-11-24T03:10:40;16.67;;;2.60;;
20657;SDS011;10488;50.846;4.078;2022-11-24T03:13:06;12.38;;;3.17;;
20657;SDS011;10488;50.846;4.078;2022-11-24T03:15:32;22.15;;;2.55;;
20657;SDS011;10488;50.846;4.078;2022-11-24T03:17:58;10.75;;;2.40;;
20657;SDS011;10488;50.846;4.078;2022-11-24T03:20:24;20.90;;;3.72;;
20657;SDS011;10488;50.846;4.078;2022-11-24T03:22:50;17.15;;;2.53;;
20657;SDS011;10488;50.846;4.078;2022-11-24T03:25:17;14.95;;;2.88;;
20657;SDS011;10488;50.846;4.078;2022-11-24T03:27:43;10.95;;;3.05;;
20657;SDS011;10488;50.846;4.078;2022-11-24T03:30:10;22.02;;;3.33;;
20657;SDS011;10488;50.846;4.078;2022-11-24T03:32:35;14.27;;;2.92;;
20657;SDS011;10488;50.846;4.078;2022-11-24T03:35:01;6.78;;;1.70;;
20657;SDS011;10488;50.846;4.078;2022-11-24T03:37:28;10.18;;;2.00;;
20657;SDS011;10488;50.846;4.078;2022-11-24T03:39:54;8.45;;;1.63;;
20657;SDS011;10488;50.846;4.078;2022-11-24T03:42:20;9.65;;;1.70;;
20657;SDS011;10488;50.846;4.078;2022-11-24T03:44:46;11.52;;;1.80;;
20657;SDS011;10488;50.846;4.078;2022-11-24T03:47:12;7.07;;;1.63;;
20657;SDS011;10488;50.846;4.078;2022-11-24T03:49:38;7.07;;;1.67;;
20657;SDS011;10488;50.846;4.078;2022-11-24T03:52:05;6.43;;;1.15;;
20657;SDS011;10488;50.846;4.078;2022-11-24T03:54:31;7.72;;;1.13;;
20657;SDS011;10488;50.846;4.078;2022-11-24T03:56:56;7.80;;;1.60;;
20657;SDS011;10488;50.846;4.078;2022-11-24T03:59:22;6.70;;;0.93;;
20657;SDS011;10488;50.846;4.078;2022-11-24T04:01:48;2.63;;;0.80;;
20657;SDS011;10488;50.846;4.078;2022-11-24T04:04:13;7.63;;;1.05;;
20657;SDS011;10488;50.846;4.078;2022-11-24T04:06:39;5.18;;;1.05;;
20657;SDS011;10488;50.846;4.078;2022-11-24T04:09:05;4.82;;;1.10;;
20657;SDS011;10488;50.846;4.078;2022-11-24T04:11:31;3.92;;;0.95;;
20657;SDS011;10488;50.846;4.078;2022-11-24T04:14:15;8.02;;;1.30;;
20657;SDS011;10488;50.846;4.078;2022-11-24T04:16:42;5.93;;;0.80;;
20657;SDS011;10488;50.846;4.078;2022-11-24T04:19:08;4.97;;;0.90;;
20657;SDS011;10488;50.846;4.078;2022-11-24T04:21:33;7.72;;;1.08;;
20657;SDS011;10488;50.846;4.078;2022-11-24T04:23:59;3.25;;;0.85;;
20657;SDS011;10488;50.846;4.078;2022-11-24T04:26:25;4.28;;;0.85;;
20657;SDS011;10488;50.846;4.078;2022-11-24T04:28:51;5.07;;;1.02;;
20657;SDS011;10488;50.846;4.078;2022-11-24T04:31:17;5.93;;;0.98;;
20657;SDS011;10488;50.846;4.078;2022-11-24T04:33:42;5.50;;;0.90;;
20657;SDS011;10488;50.846;4.078;2022-11-24T04:36:08;7.00;;;1.00;;
20657;SDS011;10488;50.846;4.078;2022-11-24T04:38:34;3.35;;;0.85;;
20657;SDS011;10488;50.846;4.078;2022-11-24T04:41:02;5.90;;;1.00;;
20657;SDS011;10488;50.846;4.078;2022-11-24T04:43:29;3.45;;;0.68;;
20657;SDS011;10488;50.846;4.078;2022-11-24T04:45:58;6.25;;;1.10;;
20657;SDS011;10488;50.846;4.078;2022-11-24T04:48:24;5.32;;;0.88;;
20657;SDS011;10488;50.846;4.078;2022-11-24T04:50:50;3.58;;;0.90;;
20657;SDS011;10488;50.846;4.078;2022-11-24T04:53:16;3.30;;;0.90;;
20657;SDS011;10488;50.846;4.078;2022-11-24T04:55:42;4.07;;;1.13;;
20657;SDS011;10488;50.846;4.078;2022-11-24T04:58:08;4.65;;;1.33;;
20657;SDS011;10488;50.846;4.078;2022-11-24T05:00:35;4.70;;;1.10;;
20657;SDS011;10488;50.846;4.078;2022-11-24T05:03:02;8.20;;;0.90;;
20657;SDS011;10488;50.846;4.078;2022-11-24T05:05:28;4.22;;;1.00;;
20657;SDS011;10488;50.846;4.078;2022-11-24T05:07:53;6.32;;;0.85;;
20657;SDS011;10488;50.846;4.078;2022-11-24T05:10:19;5.22;;;1.10;;
20657;SDS011;10488;50.846;4.078;2022-11-24T05:13:05;6.43;;;1.05;;
20657;SDS011;10488;50.846;4.078;2022-11-24T05:15:38;5.00;;;1.15;;
20657;SDS011;10488;50.846;4.078;2022-11-24T05:18:09;4.68;;;1.23;;
20657;SDS011;10488;50.846;4.078;2022-11-24T05:20:36;5.68;;;0.77;;
20657;SDS011;10488;50.846;4.078;2022-11-24T05:23:05;8.63;;;1.30;;
20657;SDS011;10488;50.846;4.078;2022-11-24T05:25:35;8.63;;;1.25;;
20657;SDS011;10488;50.846;4.078;2022-11-24T05:28:02;6.65;;;1.40;;
20657;SDS011;10488;50.846;4.078;2022-11-24T05:30:30;2.13;;;1.10;;
20657;SDS011;10488;50.846;4.078;2022-11-24T05:32:56;5.78;;;0.93;;
20657;SDS011;10488;50.846;4.078;2022-11-24T05:35:22;5.70;;;1.35;;
20657;SDS011;10488;50.846;4.078;2022-11-24T05:37:48;8.25;;;1.77;;
20657;SDS011;10488;50.846;4.078;2022-11-24T05:40:14;10.52;;;1.45;;
20657;SDS011;10488;50.846;4.078;2022-11-24T05:42:40;9.27;;;1.35;;
20657;SDS011;10488;50.846;4.078;2022-11-24T05:45:10;11.38;;;1.73;;
20657;SDS011;10488;50.846;4.078;2022-11-24T05:47:38;15.25;;;2.20;;
20657;SDS011;10488;50.846;4.078;2022-11-24T05:50:04;10.80;;;2.25;;
20657;SDS011;10488;50.846;4.078;2022-11-24T05:52:30;13.75;;;1.95;;
20657;SDS011;10488;50.846;4.078;2022-11-24T05:54:56;8.27;;;1.70;;
20657;SDS011;10488;50.846;4.078;2022-11-24T05:57:22;13.50;;;2.05;;
20657;SDS011;10488;50.846;4.078;2022-11-24T05:59:48;12.00;;;2.17;;
20657;SDS011;10488;50.846;4.078;2022-11-24T06:02:13;14.27;;;2.30;;
20657;SDS011;10488;50.846;4.078;2022-11-24T06:04:39;9.75;;;2.13;;
20657;SDS011;10488;50.846;4.078;2022-11-24T06:07:08;11.63;;;2.78;;
20657;SDS011;10488;50.846;4.078;2022-11-24T06:09:36;11.55;;;2.30;;
20657;SDS011;10488;50.846;4.078;2022-11-24T06:12:04;13.00;;;2.42;;
20657;SDS011;10488;50.846;4.078;2022-11-24T06:14:31;19.08;;;2.92;;
20657;SDS011;10488;50.846;4.078;2022-11-24T06:16:57;11.82;;;2.33;;
20657;SDS011;10488;50.846;4.078;2022-11-24T06:19:23;14.80;;;3.45;;
20657;SDS011;10488;50.846;4.078;2022-11-24T06:21:48;16.38;;;2.40;;
20657;SDS011;10488;50.846;4.078;2022-11-24T06:24:14;11.85;;;2.33;;
20657;SDS011;10488;50.846;4.078;2022-11-24T06:26:40;14.75;;;2.83;;
20657;SDS011;10488;50.846;4.078;2022-11-24T06:29:06;19.25;;;3.13;;
20657;SDS011;10488;50.846;4.078;2022-11-24T06:31:32;16.05;;;3.17;;
20657;SDS011;10488;50.846;4.078;2022-11-24T06:33:58;13.95;;;2.25;;
20657;SDS011;10488;50.846;4.078;2022-11-24T06:36:24;24.90;;;5.32;;
20657;SDS011;10488;50.846;4.078;2022-11-24T06:38:51;15.15;;;2.78;;
20657;SDS011;10488;50.846;4.078;2022-11-24T06:41:17;17.23;;;2.58;;
20657;SDS011;10488;50.846;4.078;2022-11-24T06:43:44;18.85;;;3.08;;
20657;SDS011;10488;50.846;4.078;2022-11-24T06:46:10;16.52;;;3.38;;
20657;SDS011;10488;50.846;4.078;2022-11-24T06:48:36;12.85;;;2.42;;
20657;SDS011;10488;50.846;4.078;2022-11-24T06:51:03;13.50;;;3.00;;
20657;SDS011;10488;50.846;4.078;2022-11-24T06:53:31;17.70;;;2.63;;
20657;SDS011;10488;50.846;4.078;2022-11-24T06:56:12;18.60;;;2.95;;
20657;SDS011;10488;50.846;4.078;2022-11-24T06:58:39;12.45;;;2.65;;
20657;SDS011;10488;50.846;4.078;2022-11-24T07:01:15;12.75;;;2.03;;
20657;SDS011;10488;50.846;4.078;2022-11-24T07:03:52;14.77;;;2.85;;
20657;SDS011;10488;50.846;4.078;2022-11-24T07:06:19;9.95;;;2.70;;
20657;SDS011;10488;50.846;4.078;2022-11-24T07:08:46;12.50;;;2.75;;
20657;SDS011;10488;50.846;4.078;2022-11-24T07:11:13;16.52;;;2.97;;
20657;SDS011;10488;50.846;4.078;2022-11-24T07:13:45;15.88;;;2.63;;
20657;SDS011;10488;50.846;4.078;2022-11-24T07:16:16;15.15;;;2.40;;
20657;SDS011;10488;50.846;4.078;2022-11-24T07:18:42;17.40;;;3.28;;
20657;SDS011;10488;50.846;4.078;2022-11-24T07:21:08;12.95;;;2.33;;
20657;SDS011;10488;50.846;4.078;2022-11-24T07:23:34;11.93;;;2.35;;
20657;SDS011;10488;50.846;4.078;2022-11-24T07:26:03;11.65;;;3.08;;
20657;SDS011;10488;50.846;4.078;2022-11-24T07:28:30;12.93;;;2.70;;
20657;SDS011;10488;50.846;4.078;2022-11-24T07:30:56;11.90;;;3.30;;
20657;SDS011;10488;50.846;4.078;2022-11-24T07:33:22;13.20;;;2.08;;
20657;SDS011;10488;50.846;4.078;2022-11-24T07:35:52;11.25;;;1.60;;
20657;SDS011;10488;50.846;4.078;2022-11-24T07:38:18;9.45;;;1.80;;
20657;SDS011;10488;50.846;4.078;2022-11-24T07:40:44;20.38;;;2.63;;
20657;SDS011;10488;50.846;4.078;2022-11-24T07:43:10;9.45;;;2.03;;
20657;SDS011;10488;50.846;4.078;2022-11-24T07:45:35;11.75;;;1.92;;
20657;SDS011;10488;50.846;4.078;2022-11-24T07:48:01;10.52;;;1.88;;
20657;SDS011;10488;50.846;4.078;2022-11-24T07:50:27;13.90;;;2.45;;
20657;SDS011;10488;50.846;4.078;2022-11-24T07:52:53;6.93;;;1.80;;
20657;SDS011;10488;50.846;4.078;2022-11-24T07:55:18;11.85;;;1.70;;
20657;SDS011;10488;50.846;4.078;2022-11-24T07:57:44;10.57;;;2.20;;
20657;SDS011;10488;50.846;4.078;2022-11-24T08:00:10;12.68;;;2.38;;
20657;SDS011;10488;50.846;4.078;2022-11-24T08:02:36;12.10;;;3.00;;
20657;SDS011;10488;50.846;4.078;2022-11-24T08:05:02;9.02;;;2.25;;
20657;SDS011;10488;50.846;4.078;2022-11-24T08:07:28;9.88;;;2.13;;
20657;SDS011;10488;50.846;4.078;2022-11-24T08:09:54;10.05;;;1.88;;
20657;SDS011;10488;50.846;4.078;2022-11-24T08:12:20;9.88;;;2.10;;
20657;SDS011;10488;50.846;4.078;2022-11-24T08:14:49;5.75;;;2.10;;
20657;SDS011;10488;50.846;4.078;2022-11-24T08:17:15;10.70;;;2.30;;
20657;SDS011;10488;50.846;4.078;2022-11-24T08:19:42;8.60;;;2.13;;
20657;SDS011;10488;50.846;4.078;2022-11-24T08:22:08;13.13;;;2.17;;
20657;SDS011;10488;50.846;4.078;2022-11-24T08:24:34;14.07;;;2.28;;
20657;SDS011;10488;50.846;4.078;2022-11-24T08:27:00;12.75;;;2.97;;
20657;SDS011;10488;50.846;4.078;2022-11-24T08:29:29;9.02;;;2.08;;
20657;SDS011;10488;50.846;4.078;2022-11-24T08:31:55;14.73;;;2.72;;
20657;SDS011;10488;50.846;4.078;2022-11-24T08:34:21;12.90;;;4.15;;
20657;SDS011;10488;50.846;4.078;2022-11-24T08:36:49;10.35;;;2.45;;
20657;SDS011;10488;50.846;4.078;2022-11-24T08:39:15;11.63;;;2.58;;
20657;SDS011;10488;50.846;4.078;2022-11-24T08:41:41;11.90;;;2.53;;
20657;SDS011;10488;50.846;4.078;2022-11-24T08:44:06;9.40;;;1.92;;
20657;SDS011;10488;50.846;4.078;2022-11-24T08:46:34;11.55;;;2.55;;
20657;SDS011;10488;50.846;4.078;2022-11-24T08:49:00;10.00;;;2.20;;
20657;SDS011;10488;50.846;4.078;2022-11-24T08:51:26;14.13;;;2.58;;
20657;SDS011;10488;50.846;4.078;2022-11-24T08:53:52;17.02;;;2.13;;
20657;SDS011;10488;50.846;4.078;2022-11-24T08:56:22;12.68;;;2.53;;
20657;SDS011;10488;50.846;4.078;2022-11-24T08:58:49;10.85;;;2.17;;
20657;SDS011;10488;50.846;4.078;2022-11-24T09:01:15;14.60;;;2.55;;
20657;SDS011;10488;50.846;4.078;2022-11-24T09:03:42;14.75;;;3.40;;
20657;SDS011;10488;50.846;4.078;2022-11-24T09:06:08;10.20;;;1.77;;
20657;SDS011;10488;50.846;4.078;2022-11-24T09:08:35;9.57;;;2.47;;
20657;SDS011;10488;50.846;4.078;2022-11-24T09:11:01;14.10;;;2.60;;
20657;SDS011;10488;50.846;4.078;2022-11-24T09:13:29;16.83;;;2.40;;
20657;SDS011;10488;50.846;4.078;2022-11-24T09:15:55;12.63;;;3.00;;
20657;SDS011;10488;50.846;4.078;2022-11-24T09:18:20;12.32;;;2.22;;
20657;SDS011;10488;50.846;4.078;2022-11-24T09:20:46;11.65;;;2.15;;
20657;SDS011;10488;50.846;4.078;2022-11-24T09:23:12;12.57;;;3.08;;
20657;SDS011;10488;50.846;4.078;2022-11-24T09:25:38;8.32;;;2.47;;
20657;SDS011;10488;50.846;4.078;2022-11-24T09:28:04;14.23;;;2.20;;
20657;SDS011;10488;50.846;4.078;2022-11-24T09:30:29;10.98;;;2.58;;
20657;SDS011;10488;50.846;4.078;2022-11-24T09:32:55;8.35;;;2.10;;
20657;SDS011;10488;50.846;4.078;2022-11-24T09:35:21;16.38;;;2.53;;
20657;SDS011;10488;50.846;4.078;2022-11-24T09:37:46;8.90;;;2.17;;
20657;SDS011;10488;50.846;4.078;2022-11-24T09:40:14;10.68;;;2.00;;
20657;SDS011;10488;50.846;4.078;2022-11-24T09:42:48;7.38;;;1.70;;
20657;SDS011;10488;50.846;4.078;2022-11-24T09:45:54;10.95;;;2.20;;
20657;SDS011;10488;50.846;4.078;2022-11-24T09:48:26;10.32;;;2.42;;
20657;SDS011;10488;50.846;4.078;2022-11-24T09:50:56;10.55;;;2.30;;
20657;SDS011;10488;50.846;4.078;2022-11-24T09:55:51;15.23;;;2.35;;
20657;SDS011;10488;50.846;4.078;2022-11-24T10:01:17;15.80;;;2.33;;
20657;SDS011;10488;50.846;4.078;2022-11-24T10:03:44;9.43;;;1.98;;
20657;SDS011;10488;50.846;4.078;2022-11-24T10:11:20;9.02;;;2.22;;
20657;SDS011;10488;50.846;4.078;2022-11-24T10:14:11;21.65;;;3.60;;
20657;SDS011;10488;50.846;4.078;2022-11-24T10:25:11;17.15;;;3.40;;
20657;SDS011;10488;50.846;4.078;2022-11-24T10:27:44;13.32;;;2.38;;
20657;SDS011;10488;50.846;4.078;2022-11-24T10:30:14;13.02;;;2.38;;
20657;SDS011;10488;50.846;4.078;2022-11-24T10:32:46;17.10;;;2.58;;
20657;SDS011;10488;50.846;4.078;2022-11-24T10:35:20;15.15;;;2.60;;
20657;SDS011;10488;50.846;4.078;2022-11-24T10:40:49;15.60;;;2.30;;
20657;SDS011;10488;50.846;4.078;2022-11-24T10:43:19;12.13;;;2.58;;
20657;SDS011;10488;50.846;4.078;2022-11-24T10:45:45;13.93;;;2.50;;
20657;SDS011;10488;50.846;4.078;2022-11-24T10:48:19;21.45;;;3.08;;
20657;SDS011;10488;50.846;4.078;2022-11-24T10:50:48;14.45;;;2.90;;
20657;SDS011;10488;50.846;4.078;2022-11-24T10:58:21;11.90;;;2.33;;
20657;SDS011;10488;50.846;4.078;2022-11-24T11:00:58;13.75;;;2.70;;
20657;SDS011;10488;50.846;4.078;2022-11-24T11:03:48;13.93;;;2.83;;
20657;SDS011;10488;50.846;4.078;2022-11-24T11:06:28;13.07;;;2.92;;
20657;SDS011;10488;50.846;4.078;2022-11-24T11:11:37;17.52;;;2.40;;
20657;SDS011;10488;50.846;4.078;2022-11-24T11:14:07;10.93;;;2.25;;
20657;SDS011;10488;50.846;4.078;2022-11-24T11:16:39;13.20;;;2.42;;
20657;SDS011;10488;50.846;4.078;2022-11-24T11:24:34;10.57;;;2.47;;
20657;SDS011;10488;50.846;4.078;2022-11-24T11:27:15;18.77;;;2.95;;
20657;SDS011;10488;50.846;4.078;2022-11-24T11:29:41;15.27;;;2.92;;
20657;SDS011;10488;50.846;4.078;2022-11-24T11:32:23;14.90;;;3.03;;
20657;SDS011;10488;50.846;4.078;2022-11-24T11:34:51;17.48;;;2.88;;
20657;SDS011;10488;50.846;4.078;2022-11-24T11:37:19;12.05;;;2.10;;
20657;SDS011;10488;50.846;4.078;2022-11-24T11:39:48;12.10;;;2.85;;
20657;SDS011;10488;50.846;4.078;2022-11-24T11:44:52;15.27;;;2.30;;
20657;SDS011;10488;50.846;4.078;2022-11-24T11:49:49;10.73;;;3.13;;
20657;SDS011;10488;50.846;4.078;2022-11-24T12:00:50;16.77;;;2.72;;
20657;SDS011;10488;50.846;4.078;2022-11-24T12:06:18;13.27;;;2.83;;
20657;SDS011;10488;50.846;4.078;2022-11-24T12:08:55;12.52;;;2.63;;
20657;SDS011;10488;50.846;4.078;2022-11-24T12:20:00;14.43;;;2.60;;
20657;SDS011;10488;50.846;4.078;2022-11-24T12:22:41;10.50;;;2.42;;
20657;SDS011;10488;50.846;4.078;2022-11-24T12:28:07;11.23;;;3.17;;
20657;SDS011;10488;50.846;4.078;2022-11-24T12:31:04;15.75;;;2.72;;
20657;SDS011;10488;50.846;4.078;2022-11-24T12:36:23;14.70;;;2.97;;
20657;SDS011;10488;50.846;4.078;2022-11-24T12:38:58;21.33;;;4.13;;
20657;SDS011;10488;50.846;4.078;2022-11-24T12:44:47;17.85;;;2.97;;
20657;SDS011;10488;50.846;4.078;2022-11-24T12:47:16;15.02;;;3.22;;
20657;SDS011;10488;50.846;4.078;2022-11-24T12:52:45;14.13;;;3.28;;
20657;SDS011;10488;50.846;4.078;2022-11-24T12:55:18;14.35;;;3.05;;
20657;SDS011;10488;50.846;4.078;2022-11-24T13:01:21;11.85;;;3.40;;
20657;SDS011;10488;50.846;4.078;2022-11-24T13:03:44;12.52;;;2.45;;
20657;SDS011;10488;50.846;4.078;2022-11-24T13:06:37;16.27;;;3.00;;
20657;SDS011;10488;50.846;4.078;2022-11-24T13:09:10;18.27;;;2.83;;
20657;SDS011;10488;50.846;4.078;2022-11-24T13:11:38;13.43;;;3.10;;
20657;SDS011;10488;50.846;4.078;2022-11-24T13:14:22;9.80;;;2.80;;
20657;SDS011;10488;50.846;4.078;2022-11-24T13:17:00;24.38;;;3.53;;
20657;SDS011;10488;50.846;4.078;2022-11-24T13:19:32;12.57;;;3.17;;
20657;SDS011;10488;50.846;4.078;2022-11-24T13:22:08;16.42;;;3.30;;
20657;SDS011;10488;50.846;4.078;2022-11-24T13:24:38;18.45;;;3.45;;
20657;SDS011;10488;50.846;4.078;2022-11-24T13:29:49;13.15;;;2.90;;
20657;SDS011;10488;50.846;4.078;2022-11-24T13:39:57;16.67;;;3.47;;
20657;SDS011;10488;50.846;4.078;2022-11-24T13:42:25;16.90;;;3.03;;
20657;SDS011;10488;50.846;4.078;2022-11-24T13:44:52;18.55;;;2.60;;
20657;SDS011;10488;50.846;4.078;2022-11-24T13:50:13;15.65;;;3.30;;
20657;SDS011;10488;50.846;4.078;2022-11-24T14:05:48;16.52;;;2.65;;
20657;SDS011;10488;50.846;4.078;2022-11-24T14:08:17;14.50;;;3.30;;
20657;SDS011;10488;50.846;4.078;2022-11-24T14:10:51;12.93;;;2.90;;
20657;SDS011;10488;50.846;4.078;2022-11-24T14:16:04;19.15;;;3.60;;
20657;SDS011;10488;50.846;4.078;2022-11-24T14:18:34;25.02;;;3.42;;
20657;SDS011;10488;50.846;4.078;2022-11-24T14:23:57;16.33;;;3.50;;
20657;SDS011;10488;50.846;4.078;2022-11-24T14:26:47;16.27;;;3.78;;
20657;SDS011;10488;50.846;4.078;2022-11-24T14:29:14;29.90;;;3.75;;
20657;SDS011;10488;50.846;4.078;2022-11-24T14:31:54;14.70;;;2.78;;
20657;SDS011;10488;50.846;4.078;2022-11-24T14:34:26;14.75;;;3.20;;
20657;SDS011;10488;50.846;4.078;2022-11-24T14:36:54;19.55;;;2.97;;
20657;SDS011;10488;50.846;4.078;2022-11-24T14:39:24;16.15;;;3.28;;
20657;SDS011;10488;50.846;4.078;2022-11-24T14:44:19;15.50;;;3.10;;
20657;SDS011;10488;50.846;4.078;2022-11-24T14:47:03;18.58;;;3.17;;
20657;SDS011;10488;50.846;4.078;2022-11-24T14:49:30;19.27;;;3.22;;
20657;SDS011;10488;50.846;4.078;2022-11-24T14:52:01;15.85;;;2.90;;
20657;SDS011;10488;50.846;4.078;2022-11-24T14:54:33;17.08;;;2.97;;
20657;SDS011;10488;50.846;4.078;2022-11-24T14:57:04;28.25;;;3.75;;
20657;SDS011;10488;50.846;4.078;2022-11-24T14:59:34;22.98;;;3.08;;
20657;SDS011;10488;50.846;4.078;2022-11-24T15:02:02;18.92;;;2.90;;
20657;SDS011;10488;50.846;4.078;2022-11-24T15:04:55;14.82;;;2.92;;
20657;SDS011;10488;50.846;4.078;2022-11-24T15:07:23;12.13;;;2.90;;
20657;SDS011;10488;50.846;4.078;2022-11-24T15:09:51;16.58;;;2.58;;
20657;SDS011;10488;50.846;4.078;2022-11-24T15:15:05;17.83;;;3.33;;
20657;SDS011;10488;50.846;4.078;2022-11-24T15:17:50;20.17;;;3.20;;
20657;SDS011;10488;50.846;4.078;2022-11-24T15:20:24;15.70;;;3.13;;
20657;SDS011;10488;50.846;4.078;2022-11-24T15:25:47;19.33;;;3.55;;
20657;SDS011;10488;50.846;4.078;2022-11-24T15:28:14;11.10;;;2.85;;
20657;SDS011;10488;50.846;4.078;2022-11-24T15:30:39;20.40;;;3.30;;
20657;SDS011;10488;50.846;4.078;2022-11-24T15:33:10;14.82;;;2.88;;
20657;SDS011;10488;50.846;4.078;2022-11-24T15:35:38;21.05;;;3.55;;
20657;SDS011;10488;50.846;4.078;2022-11-24T15:38:04;13.18;;;2.55;;
20657;SDS011;10488;50.846;4.078;2022-11-24T15:40:29;15.82;;;3.92;;
20657;SDS011;10488;50.846;4.078;2022-11-24T15:42:55;16.77;;;3.25;;
20657;SDS011;10488;50.846;4.078;2022-11-24T15:45:22;24.35;;;3.60;;
20657;SDS011;10488;50.846;4.078;2022-11-24T15:47:50;23.33;;;4.15;;
20657;SDS011;10488;50.846;4.078;2022-11-24T15:50:16;22.80;;;3.45;;
20657;SDS011;10488;50.846;4.078;2022-11-24T15:52:42;16.05;;;4.18;;
20657;SDS011;10488;50.846;4.078;2022-11-24T15:55:19;13.90;;;3.25;;
20657;SDS011;10488;50.846;4.078;2022-11-24T15:57:46;21.05;;;3.38;;
20657;SDS011;10488;50.846;4.078;2022-11-24T16:00:16;16.20;;;3.70;;
20657;SDS011;10488;50.846;4.078;2022-11-24T16:02:43;13.57;;;3.10;;
20657;SDS011;10488;50.846;4.078;2022-11-24T16:05:09;15.25;;;2.95;;
20657;SDS011;10488;50.846;4.078;2022-11-24T16:07:36;14.23;;;2.95;;
20657;SDS011;10488;50.846;4.078;2022-11-24T16:10:02;15.95;;;2.97;;
20657;SDS011;10488;50.846;4.078;2022-11-24T16:12:28;27.67;;;3.55;;
20657;SDS011;10488;50.846;4.078;2022-11-24T16:14:53;17.58;;;3.50;;
20657;SDS011;10488;50.846;4.078;2022-11-24T16:17:19;18.13;;;3.65;;
20657;SDS011;10488;50.846;4.078;2022-11-24T16:19:45;22.77;;;4.25;;
20657;SDS011;10488;50.846;4.078;2022-11-24T16:22:10;21.85;;;5.30;;
20657;SDS011;10488;50.846;4.078;2022-11-24T16:24:37;20.02;;;4.65;;
20657;SDS011;10488;50.846;4.078;2022-11-24T16:27:03;23.55;;;3.70;;
20657;SDS011;10488;50.846;4.078;2022-11-24T16:29:28;20.58;;;3.60;;
20657;SDS011;10488;50.846;4.078;2022-11-24T16:31:55;15.45;;;3.08;;
20657;SDS011;10488;50.846;4.078;2022-11-24T16:34:21;17.27;;;3.42;;
20657;SDS011;10488;50.846;4.078;2022-11-24T16:36:47;13.70;;;2.72;;
20657;SDS011;10488;50.846;4.078;2022-11-24T16:39:13;23.23;;;4.22;;
20657;SDS011;10488;50.846;4.078;2022-11-24T16:41:39;16.17;;;3.38;;
20657;SDS011;10488;50.846;4.078;2022-11-24T16:44:05;22.00;;;5.30;;
20657;SDS011;10488;50.846;4.078;2022-11-24T16:46:30;15.95;;;3.75;;
20657;SDS011;10488;50.846;4.078;2022-11-24T16:48:56;22.83;;;5.70;;
20657;SDS011;10488;50.846;4.078;2022-11-24T16:51:27;19.85;;;5.07;;